Ana Sayfa
METAR-TAF:

METAR-TAF

Havaalanları :

Etimesgut Havalimanı

Ankara Etimesgut, Türkiye

Enlem: 39-57N, Boylam: 032-41E, yükseklik: 799 m

METAR: eksik

Saat: 23:42 (20:42 UTC)

Tahmin

Rapor saat 19:40 UTC de 1 saat ve 2 dakika önce yapıldı.
Ayın 23'si saat 21 UTC'den ayın 24'si saat 06 UTC'ye kadar geçerli Tahmin
Rüzgar değişken yönden 2 kt
Görüş mesafesi 10 km veya daha fazla
1500 m altında bulut yok ve kümülonimbus yok

TAF: LTAD 231940Z 2321/2406 VRB02KT CAVOK

4.000'den fazla havaalanı için hava durumu gözlemleri ve tahminleri (METAR ve TAF raporları).

Kullanılabilir istasyonlar harita üzerinde sarı ve kırmızı noktalarla gösterilir.

İstasyonun adını görmek için fareyi noktanın üzerinde gezdirin.

Sonrasında hava gözlem ve tahminlerini görmek için tıklayın.

Haritayı değiştirmek için: yaklaştırmak için siyah artı işaretli yeşil düğmeye ve uzaklaştırmak için de eksi işaretli düğmeye hızla tıklayın; bitişik haritalar için yeşil okları kullanın.


METAR-TAF: